Northsea Beta — 9HA2594 — position and weather

sailwx.info

Track history (hours):
 
Tides and Currents Weather Stations Pressure Air Temp Water Temp Dewpoint Dewpoint Depression Visibility Wind Speed Wind Dir Waves Ship Positions

Northsea Beta

Last reported at 2014-Oct-21 04:25 UTC. Time now 2014-Oct-21 05:31 UTC.
Position N 53°01' E 004°50'.

Length 110 m; draft 5.2 m.

Type: Tanker. MMSI: 248970000.

Date/timePositionNaut miles runAvg speedWind from/ knotsBaromVisibWave heightAir tempDewpointWater temp
2014-Oct-21 04:25N 53°01' E 004°50'0 0.0
2014-Oct-21 03:25N 53°01' E 004°50'0 0.0
2014-Oct-21 02:25N 53°01' E 004°50'0 0.0
2014-Oct-21 01:28N 53°01' E 004°50'0 0.0
2014-Oct-21 00:28N 53°01' E 004°50'0 0.2
2014-Oct-20 23:31N 53°01' E 004°50'0 0.0
2014-Oct-20 22:31N 53°01' E 004°50'0 0.0
2014-Oct-20 21:28N 53°01' E 004°50'0 0.0
2014-Oct-20 20:31N 53°01' E 004°50'0 0.0
2014-Oct-20 19:28N 53°01' E 004°50'0 0.1
2014-Oct-20 18:31N 53°01' E 004°50'0 0.1
2014-Oct-20 17:31N 53°01' E 004°50'0 0.0
2014-Oct-20 16:31N 53°01' E 004°50'0 0.0
2014-Oct-20 15:22N 53°01' E 004°50'0 0.0
2014-Oct-20 14:25N 53°01' E 004°50'0 0.0
2014-Oct-20 13:25N 53°01' E 004°50'0 0.0
2014-Oct-20 12:25N 53°01' E 004°50'1 0.4
2014-Oct-20 10:33N 53°01' E 004°49'  
2014-Oct-15 19:33N 52°58' E 004°47'7 7.1
2014-Oct-15 18:32N 52°53' E 004°38'1010.4
2014-Oct-15 17:33N 52°47' E 004°25'80 7.9
2014-Oct-15 07:23N 51°36' E 003°24'911.5
2014-Oct-15 06:33N 51°27' E 003°31'8 8.4
2014-Oct-15 05:33N 51°23' E 003°43'8 7.6
2014-Oct-15 04:31N 51°22' E 003°56'4 4.6
2014-Oct-15 03:34N 51°24' E 004°02'7 6.7
2014-Oct-15 02:33N 51°23' E 004°13'4 3.5
2014-Oct-15 01:32N 51°21' E 004°17'0 0.3
2014-Oct-15 00:33N 51°21' E 004°18'0 0.2
2014-Oct-14 23:33N 51°21' E 004°18'4 3.8
2014-Oct-14 22:33N 51°17' E 004°20'0 0.0
2014-Oct-14 03:18N 51°17' E 004°20'0 0.0
2014-Oct-14 02:30N 51°17' E 004°20'0 0.0
2014-Oct-13 23:12N 51°17' E 004°20'0 0.0
2014-Oct-13 17:29N 51°17' E 004°20'4 4.1
2014-Oct-13 16:34N 51°21' E 004°17'0 0.0
2014-Oct-13 15:33N 51°21' E 004°17'5 5.4
2014-Oct-13 14:33N 51°23' E 004°09'8 8.0
2014-Oct-13 13:33N 51°23' E 003°56'10 9.9
2014-Oct-13 12:33N 51°26' E 003°41'1111.4
2014-Oct-13 11:34N 51°31' E 003°26'1410.4
2014-Oct-13 10:10N 51°44' E 003°16'6 0.6
2014-Oct-13 00:31N 51°49' E 003°23'0 0.0
2014-Oct-12 23:31N 51°49' E 003°23'0 0.0
2014-Oct-12 22:31N 51°49' E 003°23'7 0.5
2014-Oct-12 07:31N 51°43' E 003°17'1312.9
2014-Oct-12 06:31N 51°31' E 003°26'1111.1
2014-Oct-12 05:33N 51°26' E 003°41'10 9.6
2014-Oct-12 04:30N 51°23' E 003°56'5 4.8
2014-Oct-12 03:33N 51°22' E 004°04'7 7.3
2014-Oct-12 02:34N 51°21' E 004°15'5 5.3
2014-Oct-12 01:33N 51°16' E 004°17'  
Track history (hours):
 
Tides and Currents Weather Stations Pressure Air Temp Water Temp Dewpoint Dewpoint Depression Visibility Wind Speed Wind Dir Waves Ship Positions

Northsea Beta

Last reported at 2014-Oct-21 04:25 UTC. Time now 2014-Oct-21 05:31 UTC.
Position N 53°01' E 004°50'.

Length 110 m; draft 5.2 m.

Type: Tanker. MMSI: 248970000.

Date/timePositionNaut miles runAvg speedWind from/ knotsBaromVisibWave heightAir tempDewpointWater temp
2014-Oct-21 04:25N 53°01' E 004°50'0 0.0
2014-Oct-21 03:25N 53°01' E 004°50'0 0.0
2014-Oct-21 02:25N 53°01' E 004°50'0 0.0
2014-Oct-21 01:28N 53°01' E 004°50'0 0.0
2014-Oct-21 00:28N 53°01' E 004°50'0 0.2
2014-Oct-20 23:31N 53°01' E 004°50'0 0.0
2014-Oct-20 22:31N 53°01' E 004°50'0 0.0
2014-Oct-20 21:28N 53°01' E 004°50'0 0.0
2014-Oct-20 20:31N 53°01' E 004°50'0 0.0
2014-Oct-20 19:28N 53°01' E 004°50'0 0.1
2014-Oct-20 18:31N 53°01' E 004°50'0 0.1
2014-Oct-20 17:31N 53°01' E 004°50'0 0.0
2014-Oct-20 16:31N 53°01' E 004°50'0 0.0
2014-Oct-20 15:22N 53°01' E 004°50'0 0.0
2014-Oct-20 14:25N 53°01' E 004°50'0 0.0
2014-Oct-20 13:25N 53°01' E 004°50'0 0.0
2014-Oct-20 12:25N 53°01' E 004°50'1 0.4
2014-Oct-20 10:33N 53°01' E 004°49'  
2014-Oct-15 19:33N 52°58' E 004°47'7 7.1
2014-Oct-15 18:32N 52°53' E 004°38'1010.4
2014-Oct-15 17:33N 52°47' E 004°25'80 7.9
2014-Oct-15 07:23N 51°36' E 003°24'911.5
2014-Oct-15 06:33N 51°27' E 003°31'8 8.4
2014-Oct-15 05:33N 51°23' E 003°43'8 7.6
2014-Oct-15 04:31N 51°22' E 003°56'4 4.6
2014-Oct-15 03:34N 51°24' E 004°02'7 6.7
2014-Oct-15 02:33N 51°23' E 004°13'4 3.5
2014-Oct-15 01:32N 51°21' E 004°17'0 0.3
2014-Oct-15 00:33N 51°21' E 004°18'0 0.2
2014-Oct-14 23:33N 51°21' E 004°18'4 3.8
2014-Oct-14 22:33N 51°17' E 004°20'0 0.0
2014-Oct-14 03:18N 51°17' E 004°20'0 0.0
2014-Oct-14 02:30N 51°17' E 004°20'0 0.0
2014-Oct-13 23:12N 51°17' E 004°20'0 0.0
2014-Oct-13 17:29N 51°17' E 004°20'4 4.1
2014-Oct-13 16:34N 51°21' E 004°17'0 0.0
2014-Oct-13 15:33N 51°21' E 004°17'5 5.4
2014-Oct-13 14:33N 51°23' E 004°09'8 8.0
2014-Oct-13 13:33N 51°23' E 003°56'10 9.9
2014-Oct-13 12:33N 51°26' E 003°41'1111.4
2014-Oct-13 11:34N 51°31' E 003°26'1410.4
2014-Oct-13 10:10N 51°44' E 003°16'6 0.6
2014-Oct-13 00:31N 51°49' E 003°23'0 0.0
2014-Oct-12 23:31N 51°49' E 003°23'0 0.0
2014-Oct-12 22:31N 51°49' E 003°23'7 0.5
2014-Oct-12 07:31N 51°43' E 003°17'1312.9
2014-Oct-12 06:31N 51°31' E 003°26'1111.1
2014-Oct-12 05:33N 51°26' E 003°41'10 9.6
2014-Oct-12 04:30N 51°23' E 003°56'5 4.8
2014-Oct-12 03:33N 51°22' E 004°04'7 7.3
2014-Oct-12 02:34N 51°21' E 004°15'5 5.3
2014-Oct-12 01:33N 51°16' E 004°17'  

Dump ship's entire track history